KAQV

Peason Ridge Airport

Fort Polk, Louisiana, USA
METAR KAQV 210256Z AUTO VRB05KT 10SM CLR 28/06 A2997 RMK AO2 SLP145 T02780061 53023 PWINO $
Observed Flight Rules
Aug-21 @ 02:56 UTC (an hour ago) Visual Flight Rules
Wind Visibility Clouds
Variable at 5 knots 10 miles
  • Clear skies
Temperatures Readings
Current 28°C / 82°F
Dewpoint 6°C / 43°F
Humidity 25%
Altimeter 29.97" Hg
Pressure 1014.5 hPa
Elevation 111
METAR KAQV 210256Z AUTO VRB05KT 10SM CLR 28/06 A2997 RMK AO2 SLP145 T02780061 53023 PWINO $
Observed Flight Rules
Aug-21 @ 02:56 UTC
(an hour ago)
VFR
Wind Visibility
Variable at 5 knots 10 miles
Clouds
  • Clear skies
Temperature Dewpoint
28°C / 82°F 6°C / 43°F
Humidity Altimeter Pressure
25% 29.97" Hg 1014.5 hPa